^^
Your Local Weather - Clay, NY Station Historical Data
 
Daily Summary for May 25, 2018 Units:  Metric    English   Both
« Previous Day
Next Day »
Daily Weekly Monthly Yearly Custom
  Current: High: Low: Average:
Temperature: 25.1 °C 25.1 °C 11.7 °C 16.9 °C
Dew Point: 12 °C 12.7 °C 7.2 °C 9.7 °C
Humidity: 44% 82% 41% 64%
Wind Speed: 4.8km/h 6.4km/h 0km/h 1km/h
Wind Gust: 11.3km/h 12.9km/h - -
WindWSW - - West
Pressure: 1011.7 hPa 1015.1 hPa 1011.7 hPa -
Precipitation: 0 mm      
Historical Graphs
 
 
Tabular Data for May 25, 2018
Time Temperature Dew Point Pressure Wind Wind Speed Wind Gust Humidity Rainfall Rate (Hourly) solar
00:04 14.3 °C 10.7 °C 1015.1 hPa Calm     79% 0 mm 0 W/m2
00:10 14.2 °C 10.6 °C 1015.1 hPa Calm     79% 0 mm 0 W/m2
00:16 14.1 °C 10.7 °C 1015.1 hPa Calm     80% 0 mm 0 W/m2
00:22 14.1 °C 10.8 °C 1015.1 hPa Calm     81% 0 mm 0 W/m2
00:28 14.1 °C 10.8 °C 1015.1 hPa Calm     81% 0 mm 0 W/m2
00:34 14.1 °C 11.1 °C 1015.1 hPa Calm     82% 0 mm 0 W/m2
00:40 14.1 °C 11.1 °C 1014.8 hPa Calm     82% 0 mm 0 W/m2
00:46 14.1 °C 11.1 °C 1014.8 hPa Calm     82% 0 mm 0 W/m2
00:52 14.1 °C 11.1 °C 1014.8 hPa Calm     82% 0 mm 0 W/m2
00:58 14.1 °C 11.1 °C 1014.8 hPa Calm     82% 0 mm 0 W/m2
01:04 14.2 °C 11.2 °C 1014.8 hPa Calm     82% 0 mm 0 W/m2
01:10 14.3 °C 11.2 °C 1014.8 hPa Calm     82% 0 mm 0 W/m2
01:16 14.3 °C 11.1 °C 1014.4 hPa Calm     81% 0 mm 0 W/m2
01:22 14.2 °C 10.8 °C 1014.4 hPa Calm     80% 0 mm 0 W/m2
01:28 14.1 °C 10.7 °C 1014.4 hPa Calm   1.6 km/h 80% 0 mm 0 W/m2
01:34 14.1 °C 10.4 °C 1014.4 hPa Calm     79% 0 mm 0 W/m2
01:40 14.1 °C 10.4 °C 1014.4 hPa Calm     79% 0 mm 0 W/m2
01:46 14.1 °C 10.3 °C 1014.4 hPa Calm   1.6 km/h 78% 0 mm 0 W/m2
01:52 14.2 °C 10.4 °C 1014.4 hPa Calm   3.2 km/h 78% 0 mm 0 W/m2
01:58 14.3 °C 10.1 °C 1014.4 hPa Calm   3.2 km/h 76% 0 mm 0 W/m2
02:04 14.6 °C 9.6 °C 1014.4 hPa Calm   1.6 km/h 72% 0 mm 0 W/m2
02:10 15.1 °C 9.4 °C 1014.4 hPa Calm     69% 0 mm 0 W/m2
02:16 15.4 °C 9.3 °C 1014.1 hPa Calm     67% 0 mm 0 W/m2
02:22 15.5 °C 8.9 °C 1014.1 hPa Calm   3.2 km/h 65% 0 mm 0 W/m2
02:28 15.6 °C 8.8 °C 1014.1 hPa Calm   3.2 km/h 64% 0 mm 0 W/m2
02:34 15.9 °C 8.4 °C 1014.1 hPa West 1.6 km/h 1.6 km/h 61% 0 mm 0 W/m2
02:40 16.2 °C 8.4 °C 1014.1 hPa Calm     60% 0 mm 0 W/m2
02:46 16.4 °C 8.2 °C 1014.1 hPa Calm   3.2 km/h 58% 0 mm 0 W/m2
02:52 16.7 °C 8.1 °C 1014.1 hPa West 1.6 km/h 3.2 km/h 57% 0 mm 0 W/m2
02:58 17.1 °C 7.9 °C 1014.1 hPa West 1.6 km/h 4.8 km/h 55% 0 mm 0 W/m2
03:04 17.2 °C 7.8 °C 1014.1 hPa West 1.6 km/h 3.2 km/h 54% 0 mm 0 W/m2
03:10 17.3 °C 7.6 °C 1014.1 hPa West 1.6 km/h 1.6 km/h 53% 0 mm 0 W/m2
03:16 17.4 °C 7.4 °C 1014.1 hPa West 1.6 km/h 3.2 km/h 52% 0 mm 0 W/m2
03:22 17.4 °C 7.2 °C 1014.1 hPa West 1.6 km/h 3.2 km/h 51% 0 mm 0 W/m2
03:28 17.4 °C 7.2 °C 1014.1 hPa West 1.6 km/h 3.2 km/h 51% 0 mm 0 W/m2
03:34 17.5 °C 7.2 °C 1014.1 hPa West 1.6 km/h 1.6 km/h 51% 0 mm 0 W/m2
03:40 17.3 °C 7.7 °C 1014.1 hPa Calm     53% 0 mm 0 W/m2
03:46 16.7 °C 7.9 °C 1014.1 hPa Calm     56% 0 mm 0 W/m2
03:52 16 °C 8.5 °C 1014.1 hPa Calm     61% 0 mm 0 W/m2
03:58 15.3 °C 8.6 °C 1014.1 hPa Calm     64% 0 mm 0 W/m2
04:04 14.8 °C 8.6 °C 1014.1 hPa Calm     66% 0 mm 0 W/m2
04:10 14.4 °C 8.6 °C 1014.1 hPa Calm     68% 0 mm 0 W/m2
04:16 14 °C 8.2 °C 1014.1 hPa Calm     68% 0 mm 0 W/m2
04:22 13.8 °C 8.4 °C 1014.1 hPa Calm     70% 0 mm 0 W/m2
04:28 13.6 °C 8.2 °C 1014.1 hPa Calm     70% 0 mm 0 W/m2
04:34 13.4 °C 8.2 °C 1014.1 hPa Calm     71% 0 mm 0 W/m2
04:40 13.1 °C 7.9 °C 1014.1 hPa Calm     71% 0 mm 0 W/m2
04:46 12.9 °C 7.8 °C 1014.1 hPa Calm     71% 0 mm 0 W/m2
04:52 12.7 °C 7.6 °C 1013.8 hPa Calm     71% 0 mm 0 W/m2
04:58 12.6 °C 7.7 °C 1013.8 hPa Calm     72% 0 mm 0 W/m2
05:04 12.5 °C 7.8 °C 1013.8 hPa Calm     73% 0 mm 0 W/m2
05:10 12.4 °C 7.9 °C 1013.8 hPa Calm     74% 0 mm 0 W/m2
05:16 12.2 °C 7.9 °C 1013.8 hPa Calm     75% 0 mm 0 W/m2
05:22 12 °C 7.9 °C 1013.8 hPa Calm     76% 0 mm 0 W/m2
05:28 11.9 °C 8 °C 1013.8 hPa Calm     77% 0 mm 0 W/m2
05:34 11.8 °C 7.9 °C 1013.8 hPa Calm     77% 0 mm 0 W/m2
05:40 11.8 °C 7.9 °C 1013.8 hPa Calm     77% 0 mm 5 W/m2
05:46 11.7 °C 7.8 °C 1013.8 hPa Calm     77% 0 mm 9 W/m2
05:52 11.8 °C 8.1 °C 1013.8 hPa Calm     78% 0 mm 14 W/m2
05:58 11.9 °C 8.4 °C 1013.8 hPa West 1.6 km/h 1.6 km/h 79% 0 mm 19 W/m2
06:04 12 °C 8.7 °C 1013.8 hPa West 1.6 km/h 1.6 km/h 80% 0 mm 25 W/m2
06:10 12.2 °C 8.6 °C 1013.8 hPa West 1.6 km/h 4.8 km/h 79% 0 mm 32 W/m2
06:16 12.4 °C 8.7 °C 1013.8 hPa West 1.6 km/h 4.8 km/h 78% 0 mm 39 W/m2
06:22 12.9 °C 8.9 °C 1013.8 hPa West 1.6 km/h 1.6 km/h 77% 0 mm 49 W/m2
06:28 13.1 °C 9 °C 1013.8 hPa Calm   1.6 km/h 76% 0 mm 74 W/m2
06:34 13.3 °C 9.2 °C 1013.8 hPa Calm     76% 0 mm 84 W/m2
06:40 13.6 °C 9.2 °C 1013.8 hPa Calm     75% 0 mm 98 W/m2
06:46 13.8 °C 9.3 °C 1013.8 hPa Calm   4.8 km/h 74% 0 mm 123 W/m2
06:52 13.8 °C 9.2 °C 1013.8 hPa Calm   4.8 km/h 74% 0 mm 139 W/m2
06:58 14.1 °C 9.6 °C 1013.8 hPa West 1.6 km/h 4.8 km/h 74% 0 mm 158 W/m2
07:04 14.7 °C 10.1 °C 1013.8 hPa Calm   1.6 km/h 74% 0 mm 176 W/m2
07:10 15.2 °C 10.6 °C 1013.8 hPa Calm     74% 0 mm 197 W/m2
07:16 15.6 °C 10.8 °C 1013.4 hPa Calm     73% 0 mm 216 W/m2
07:22 15.9 °C 10.4 °C 1013.4 hPa Calm     70% 0 mm 234 W/m2
07:28 16.8 °C 11.6 °C 1013.4 hPa Calm     71% 0 mm 251 W/m2
07:34 17.6 °C 12.1 °C 1013.4 hPa Calm     70% 0 mm 267 W/m2
07:40 18.2 °C 12.7 °C 1013.4 hPa Calm     70% 0 mm 283 W/m2
07:46 18.6 °C 12.3 °C 1013.4 hPa Calm     67% 0 mm 299 W/m2
07:52 18.9 °C 12.4 °C 1013.4 hPa Calm     66% 0 mm 322 W/m2
07:58 19.4 °C 11.7 °C 1013.4 hPa Calm   1.6 km/h 61% 0 mm 343 W/m2
08:04 19.6 °C 10.6 °C 1013.4 hPa Calm     56% 0 mm 359 W/m2
08:10 19.9 °C 10.9 °C 1013.4 hPa Calm   1.6 km/h 56% 0 mm 381 W/m2
08:16 20.2 °C 10.9 °C 1013.4 hPa West 1.6 km/h 3.2 km/h 55% 0 mm 399 W/m2
08:22 20.6 °C 10.9 °C 1013.4 hPa WSW 1.6 km/h 1.6 km/h 54% 0 mm 420 W/m2
08:28 20.9 °C 10.1 °C 1013.4 hPa SW 1.6 km/h 9.7 km/h 50% 0 mm 439 W/m2
08:34 21.3 °C 10.4 °C 1013.4 hPa SSW 3.2 km/h 3.2 km/h 50% 0 mm 454 W/m2
08:40 21.7 °C 9.8 °C 1013.1 hPa WSW 1.6 km/h 4.8 km/h 47% 0 mm 452 W/m2
08:46 21.9 °C 10.1 °C 1013.1 hPa WSW 1.6 km/h 4.8 km/h 47% 0 mm 490 W/m2
08:52 22.2 °C 10.9 °C 1013.1 hPa SW 3.2 km/h 3.2 km/h 49% 0 mm 478 W/m2
08:58 22.4 °C 9.6 °C 1013.1 hPa SW 3.2 km/h 12.9 km/h 44% 0 mm 520 W/m2
09:04 22.5 °C 9.9 °C 1013.1 hPa SW 4.8 km/h 8 km/h 45% 0 mm 552 W/m2
09:10 22.8 °C 10.6 °C 1013.1 hPa WNW 3.2 km/h 3.2 km/h 46% 0 mm 568 W/m2
09:16 23.1 °C 9.8 °C 1013.1 hPa WSW 1.6 km/h 4.8 km/h 43% 0 mm 594 W/m2
09:22 23.2 °C 10.6 °C 1013.1 hPa West 3.2 km/h 8 km/h 45% 0 mm 617 W/m2
09:28 23.4 °C 10.8 °C 1012.8 hPa WNW 1.6 km/h 8 km/h 45% 0 mm 643 W/m2
09:34 23.7 °C 10.7 °C 1012.8 hPa WNW 1.6 km/h 1.6 km/h 44% 0 mm 631 W/m2
09:40 23.8 °C 10.1 °C 1012.8 hPa West 3.2 km/h 4.8 km/h 42% 0 mm 633 W/m2
09:46 23.7 °C 10.4 °C 1012.8 hPa NW 4.8 km/h 4.8 km/h 43% 0 mm 663 W/m2
09:52 23.8 °C 11.2 °C 1012.8 hPa NW 3.2 km/h 6.4 km/h 45% 0 mm 624 W/m2
09:58 24 °C 11 °C 1012.4 hPa SW 3.2 km/h 9.7 km/h 44% 0 mm 722 W/m2
10:04 24.1 °C 11.1 °C 1012.4 hPa SW 3.2 km/h 4.8 km/h 44% 0 mm 740 W/m2
10:10 24.4 °C 10.3 °C 1012.4 hPa West 3.2 km/h 3.2 km/h 41% 0 mm 735 W/m2
10:16 24.5 °C 10.7 °C 1012.4 hPa NW 3.2 km/h 3.2 km/h 42% 0 mm 745 W/m2
10:22 24.8 °C 11 °C 1012.4 hPa WSW 1.6 km/h 4.8 km/h 42% 0 mm 745 W/m2
10:28 24.7 °C 10.6 °C 1012.4 hPa West 3.2 km/h 6.4 km/h 41% 0 mm 765 W/m2
10:34 24.6 °C 10.5 °C 1012.4 hPa West 3.2 km/h 4.8 km/h 41% 0 mm 780 W/m2
10:40 24.7 °C 11.3 °C 1012.1 hPa WSW 3.2 km/h 8 km/h 43% 0 mm 805 W/m2
10:46 24.8 °C 10.6 °C 1012.1 hPa WSW 4.8 km/h 8 km/h 41% 0 mm 807 W/m2
10:52 24.7 °C 10.9 °C 1011.7 hPa WSW 6.4 km/h 6.4 km/h 42% 0 mm 828 W/m2
10:58 25.1 °C 12 °C 1011.7 hPa WSW 4.8 km/h 11.3 km/h 44% 0 mm 833 W/m2
Country Meadow, Clay, NY, USA
Compliments of Weather Underground - 2 mb